sensor_id;sensor_type;location;lat;lon;timestamp;temperature;humidity
18160;DHT22;9205;52.032;4.314;2023-05-10T00:00:55;11.60;99.90
18160;DHT22;9205;52.032;4.314;2023-05-10T00:03:22;11.50;99.90
18160;DHT22;9205;52.032;4.314;2023-05-10T00:05:49;11.90;99.90
18160;DHT22;9205;52.032;4.314;2023-05-10T00:08:17;11.50;99.90
18160;DHT22;9205;52.032;4.314;2023-05-10T00:10:44;11.80;99.90
18160;DHT22;9205;52.032;4.314;2023-05-10T00:13:12;11.50;99.90
18160;DHT22;9205;52.032;4.314;2023-05-10T00:15:41;11.50;99.90
18160;DHT22;9205;52.032;4.314;2023-05-10T00:18:08;12.00;99.90
18160;DHT22;9205;52.032;4.314;2023-05-10T00:20:35;11.70;99.90
18160;DHT22;9205;52.032;4.314;2023-05-10T00:23:02;12.00;99.90
18160;DHT22;9205;52.032;4.314;2023-05-10T00:25:30;11.80;99.90
18160;DHT22;9205;52.032;4.314;2023-05-10T00:27:57;12.00;99.90
18160;DHT22;9205;52.032;4.314;2023-05-10T00:30:27;11.60;99.90
18160;DHT22;9205;52.032;4.314;2023-05-10T00:32:55;11.90;99.90
18160;DHT22;9205;52.032;4.314;2023-05-10T00:35:23;11.90;99.90
18160;DHT22;9205;52.032;4.314;2023-05-10T00:37:50;11.70;99.90
18160;DHT22;9205;52.032;4.314;2023-05-10T00:40:18;11.80;99.90
18160;DHT22;9205;52.032;4.314;2023-05-10T00:42:49;11.90;99.90
18160;DHT22;9205;52.032;4.314;2023-05-10T00:45:16;11.60;99.90
18160;DHT22;9205;52.032;4.314;2023-05-10T00:47:44;11.90;99.90
18160;DHT22;9205;52.032;4.314;2023-05-10T00:50:14;11.80;99.90
18160;DHT22;9205;52.032;4.314;2023-05-10T00:52:42;11.40;99.90
18160;DHT22;9205;52.032;4.314;2023-05-10T00:55:10;12.00;99.90
18160;DHT22;9205;52.032;4.314;2023-05-10T00:57:38;12.10;99.90
18160;DHT22;9205;52.032;4.314;2023-05-10T01:00:07;12.10;99.90
18160;DHT22;9205;52.032;4.314;2023-05-10T01:02:35;12.00;99.90
18160;DHT22;9205;52.032;4.314;2023-05-10T01:05:03;12.30;99.90
18160;DHT22;9205;52.032;4.314;2023-05-10T01:07:33;12.20;99.90
18160;DHT22;9205;52.032;4.314;2023-05-10T01:10:00;11.90;99.90
18160;DHT22;9205;52.032;4.314;2023-05-10T01:12:27;12.20;99.90
18160;DHT22;9205;52.032;4.314;2023-05-10T01:14:55;11.90;99.90
18160;DHT22;9205;52.032;4.314;2023-05-10T01:17:23;12.30;99.90
18160;DHT22;9205;52.032;4.314;2023-05-10T01:19:51;12.40;99.90
18160;DHT22;9205;52.032;4.314;2023-05-10T01:22:39;12.20;99.90
18160;DHT22;9205;52.032;4.314;2023-05-10T01:26:03;12.30;99.90
18160;DHT22;9205;52.032;4.314;2023-05-10T01:29:17;12.00;99.90
18160;DHT22;9205;52.032;4.314;2023-05-10T01:35:00;12.50;99.90
18160;DHT22;9205;52.032;4.314;2023-05-10T01:37:37;12.00;99.90
18160;DHT22;9205;52.032;4.314;2023-05-10T01:40:17;12.60;99.90
18160;DHT22;9205;52.032;4.314;2023-05-10T01:42:51;12.40;99.90
18160;DHT22;9205;52.032;4.314;2023-05-10T01:45:29;12.60;99.90
18160;DHT22;9205;52.032;4.314;2023-05-10T01:48:10;12.30;99.90
18160;DHT22;9205;52.032;4.314;2023-05-10T01:50:41;12.70;99.90
18160;DHT22;9205;52.032;4.314;2023-05-10T01:53:12;12.60;99.90
18160;DHT22;9205;52.032;4.314;2023-05-10T01:55:47;12.40;99.90
18160;DHT22;9205;52.032;4.314;2023-05-10T01:58:21;12.10;99.90
18160;DHT22;9205;52.032;4.314;2023-05-10T02:00:52;12.20;99.90
18160;DHT22;9205;52.032;4.314;2023-05-10T02:03:24;12.70;99.90
18160;DHT22;9205;52.032;4.314;2023-05-10T02:05:55;12.60;99.90
18160;DHT22;9205;52.032;4.314;2023-05-10T02:08:24;12.80;99.90
18160;DHT22;9205;52.032;4.314;2023-05-10T02:10:54;12.40;99.90
18160;DHT22;9205;52.032;4.314;2023-05-10T02:13:24;12.50;99.90
18160;DHT22;9205;52.032;4.314;2023-05-10T02:15:53;13.00;99.90
18160;DHT22;9205;52.032;4.314;2023-05-10T02:18:24;12.30;99.90
18160;DHT22;9205;52.032;4.314;2023-05-10T02:20:55;12.90;99.90
18160;DHT22;9205;52.032;4.314;2023-05-10T02:23:25;12.80;99.90
18160;DHT22;9205;52.032;4.314;2023-05-10T02:25:54;12.40;99.90
18160;DHT22;9205;52.032;4.314;2023-05-10T02:28:24;12.70;99.90
18160;DHT22;9205;52.032;4.314;2023-05-10T02:30:53;12.70;99.90
18160;DHT22;9205;52.032;4.314;2023-05-10T02:33:23;12.70;99.90
18160;DHT22;9205;52.032;4.314;2023-05-10T02:35:52;12.70;99.90
18160;DHT22;9205;52.032;4.314;2023-05-10T02:38:21;12.40;99.90
18160;DHT22;9205;52.032;4.314;2023-05-10T02:40:50;12.30;99.90
18160;DHT22;9205;52.032;4.314;2023-05-10T02:43:19;12.20;99.90
18160;DHT22;9205;52.032;4.314;2023-05-10T02:45:49;12.30;99.90
18160;DHT22;9205;52.032;4.314;2023-05-10T02:48:16;13.00;99.90
18160;DHT22;9205;52.032;4.314;2023-05-10T02:50:46;12.50;99.90
18160;DHT22;9205;52.032;4.314;2023-05-10T02:53:21;12.90;99.90
18160;DHT22;9205;52.032;4.314;2023-05-10T02:55:58;12.30;99.90
18160;DHT22;9205;52.032;4.314;2023-05-10T02:58:29;13.00;99.90
18160;DHT22;9205;52.032;4.314;2023-05-10T03:00:57;12.50;99.90
18160;DHT22;9205;52.032;4.314;2023-05-10T03:03:24;12.90;99.90
18160;DHT22;9205;52.032;4.314;2023-05-10T03:05:53;12.60;99.90
18160;DHT22;9205;52.032;4.314;2023-05-10T03:08:23;12.80;99.90
18160;DHT22;9205;52.032;4.314;2023-05-10T03:10:59;12.40;99.90
18160;DHT22;9205;52.032;4.314;2023-05-10T03:13:43;13.00;99.90
18160;DHT22;9205;52.032;4.314;2023-05-10T03:16:15;12.50;99.90
18160;DHT22;9205;52.032;4.314;2023-05-10T03:18:53;12.90;99.90
18160;DHT22;9205;52.032;4.314;2023-05-10T03:21:26;12.70;99.90
18160;DHT22;9205;52.032;4.314;2023-05-10T03:23:59;12.40;99.90
18160;DHT22;9205;52.032;4.314;2023-05-10T03:26:35;12.50;99.90
18160;DHT22;9205;52.032;4.314;2023-05-10T03:29:10;12.30;99.90
18160;DHT22;9205;52.032;4.314;2023-05-10T03:31:39;12.90;99.90
18160;DHT22;9205;52.032;4.314;2023-05-10T03:34:07;12.50;99.90
18160;DHT22;9205;52.032;4.314;2023-05-10T03:36:35;12.40;99.90
18160;DHT22;9205;52.032;4.314;2023-05-10T03:39:03;12.90;99.90
18160;DHT22;9205;52.032;4.314;2023-05-10T03:41:30;12.30;99.90
18160;DHT22;9205;52.032;4.314;2023-05-10T03:43:57;12.50;99.90
18160;DHT22;9205;52.032;4.314;2023-05-10T03:46:24;12.50;99.90
18160;DHT22;9205;52.032;4.314;2023-05-10T03:48:52;12.70;99.90
18160;DHT22;9205;52.032;4.314;2023-05-10T03:51:19;12.20;99.90
18160;DHT22;9205;52.032;4.314;2023-05-10T03:53:49;12.20;99.90
18160;DHT22;9205;52.032;4.314;2023-05-10T03:56:16;12.40;99.90
18160;DHT22;9205;52.032;4.314;2023-05-10T03:58:44;12.50;99.90
18160;DHT22;9205;52.032;4.314;2023-05-10T04:01:12;12.50;99.90
18160;DHT22;9205;52.032;4.314;2023-05-10T04:03:39;11.90;99.90
18160;DHT22;9205;52.032;4.314;2023-05-10T04:06:06;11.80;99.90
18160;DHT22;9205;52.032;4.314;2023-05-10T04:08:36;11.90;99.90
18160;DHT22;9205;52.032;4.314;2023-05-10T04:11:10;12.00;99.90
18160;DHT22;9205;52.032;4.314;2023-05-10T04:13:38;12.20;99.90
18160;DHT22;9205;52.032;4.314;2023-05-10T04:16:05;11.50;99.90
18160;DHT22;9205;52.032;4.314;2023-05-10T04:18:33;12.20;99.90
18160;DHT22;9205;52.032;4.314;2023-05-10T04:21:00;12.20;99.90
18160;DHT22;9205;52.032;4.314;2023-05-10T04:23:27;12.20;99.90
18160;DHT22;9205;52.032;4.314;2023-05-10T04:25:59;11.60;99.90
18160;DHT22;9205;52.032;4.314;2023-05-10T04:28:28;12.20;99.90
18160;DHT22;9205;52.032;4.314;2023-05-10T04:31:01;11.80;99.90
18160;DHT22;9205;52.032;4.314;2023-05-10T04:33:28;12.30;99.90
18160;DHT22;9205;52.032;4.314;2023-05-10T04:35:56;11.90;99.90
18160;DHT22;9205;52.032;4.314;2023-05-10T04:38:23;12.10;99.90
18160;DHT22;9205;52.032;4.314;2023-05-10T04:40:51;12.10;99.90
18160;DHT22;9205;52.032;4.314;2023-05-10T04:43:18;12.20;99.90
18160;DHT22;9205;52.032;4.314;2023-05-10T04:45:47;12.30;99.90
18160;DHT22;9205;52.032;4.314;2023-05-10T04:48:15;11.70;99.90
18160;DHT22;9205;52.032;4.314;2023-05-10T04:50:43;11.60;99.90
18160;DHT22;9205;52.032;4.314;2023-05-10T04:53:10;12.00;99.90
18160;DHT22;9205;52.032;4.314;2023-05-10T04:55:37;11.70;99.90
18160;DHT22;9205;52.032;4.314;2023-05-10T04:58:04;11.90;99.90
18160;DHT22;9205;52.032;4.314;2023-05-10T05:00:33;12.30;99.90
18160;DHT22;9205;52.032;4.314;2023-05-10T05:03:02;12.20;99.90
18160;DHT22;9205;52.032;4.314;2023-05-10T05:05:29;11.70;99.90
18160;DHT22;9205;52.032;4.314;2023-05-10T05:07:57;12.00;99.90
18160;DHT22;9205;52.032;4.314;2023-05-10T05:10:24;11.70;99.90
18160;DHT22;9205;52.032;4.314;2023-05-10T05:12:51;12.40;99.90
18160;DHT22;9205;52.032;4.314;2023-05-10T05:15:18;11.80;99.90
18160;DHT22;9205;52.032;4.314;2023-05-10T05:17:45;11.80;99.90
18160;DHT22;9205;52.032;4.314;2023-05-10T05:20:14;12.00;99.90
18160;DHT22;9205;52.032;4.314;2023-05-10T05:22:41;12.50;99.90
18160;DHT22;9205;52.032;4.314;2023-05-10T05:25:09;12.50;99.90
18160;DHT22;9205;52.032;4.314;2023-05-10T05:27:37;12.20;99.90
18160;DHT22;9205;52.032;4.314;2023-05-10T05:30:05;12.50;99.90
18160;DHT22;9205;52.032;4.314;2023-05-10T05:32:33;12.50;99.90
18160;DHT22;9205;52.032;4.314;2023-05-10T05:35:01;12.20;99.90
18160;DHT22;9205;52.032;4.314;2023-05-10T05:37:29;12.50;99.90
18160;DHT22;9205;52.032;4.314;2023-05-10T05:39:56;12.20;99.90
18160;DHT22;9205;52.032;4.314;2023-05-10T05:42:24;12.70;99.90
18160;DHT22;9205;52.032;4.314;2023-05-10T05:44:51;12.30;99.90
18160;DHT22;9205;52.032;4.314;2023-05-10T05:47:18;12.30;99.90
18160;DHT22;9205;52.032;4.314;2023-05-10T05:49:45;12.40;99.90
18160;DHT22;9205;52.032;4.314;2023-05-10T05:52:13;12.50;99.90
18160;DHT22;9205;52.032;4.314;2023-05-10T05:54:41;12.70;99.90
18160;DHT22;9205;52.032;4.314;2023-05-10T05:57:09;12.40;99.90
18160;DHT22;9205;52.032;4.314;2023-05-10T05:59:36;13.00;99.90
18160;DHT22;9205;52.032;4.314;2023-05-10T06:02:07;13.10;99.90
18160;DHT22;9205;52.032;4.314;2023-05-10T06:04:34;12.60;99.90
18160;DHT22;9205;52.032;4.314;2023-05-10T06:07:02;12.90;99.90
18160;DHT22;9205;52.032;4.314;2023-05-10T06:09:29;12.80;99.90
18160;DHT22;9205;52.032;4.314;2023-05-10T06:11:57;12.60;99.90
18160;DHT22;9205;52.032;4.314;2023-05-10T06:14:24;12.80;99.90
18160;DHT22;9205;52.032;4.314;2023-05-10T06:16:52;13.30;99.90
18160;DHT22;9205;52.032;4.314;2023-05-10T06:19:19;12.80;99.90
18160;DHT22;9205;52.032;4.314;2023-05-10T06:21:46;13.40;99.90
18160;DHT22;9205;52.032;4.314;2023-05-10T06:24:13;13.00;99.90
18160;DHT22;9205;52.032;4.314;2023-05-10T06:26:40;13.30;99.90
18160;DHT22;9205;52.032;4.314;2023-05-10T06:29:09;12.70;99.90
18160;DHT22;9205;52.032;4.314;2023-05-10T06:31:37;12.80;99.90
18160;DHT22;9205;52.032;4.314;2023-05-10T06:34:05;12.70;99.90
18160;DHT22;9205;52.032;4.314;2023-05-10T06:36:33;13.50;99.90
18160;DHT22;9205;52.032;4.314;2023-05-10T06:39:00;13.00;99.90
18160;DHT22;9205;52.032;4.314;2023-05-10T06:41:31;13.60;99.90
18160;DHT22;9205;52.032;4.314;2023-05-10T06:43:58;13.20;99.90
18160;DHT22;9205;52.032;4.314;2023-05-10T06:46:26;13.70;99.90
18160;DHT22;9205;52.032;4.314;2023-05-10T06:48:53;13.10;99.90
18160;DHT22;9205;52.032;4.314;2023-05-10T06:51:21;13.60;99.90
18160;DHT22;9205;52.032;4.314;2023-05-10T06:53:48;13.50;99.90
18160;DHT22;9205;52.032;4.314;2023-05-10T06:56:15;13.20;99.90
18160;DHT22;9205;52.032;4.314;2023-05-10T06:58:42;13.30;99.90
18160;DHT22;9205;52.032;4.314;2023-05-10T07:01:09;12.90;99.90
18160;DHT22;9205;52.032;4.314;2023-05-10T07:03:38;13.20;99.90
18160;DHT22;9205;52.032;4.314;2023-05-10T07:06:06;13.50;99.90
18160;DHT22;9205;52.032;4.314;2023-05-10T07:08:33;13.00;99.90
18160;DHT22;9205;52.032;4.314;2023-05-10T07:11:01;13.20;99.90
18160;DHT22;9205;52.032;4.314;2023-05-10T07:13:30;13.20;99.90
18160;DHT22;9205;52.032;4.314;2023-05-10T07:15:58;13.20;99.90
18160;DHT22;9205;52.032;4.314;2023-05-10T07:18:25;13.20;99.90
18160;DHT22;9205;52.032;4.314;2023-05-10T07:20:54;13.40;99.90
18160;DHT22;9205;52.032;4.314;2023-05-10T07:23:21;13.00;99.90
18160;DHT22;9205;52.032;4.314;2023-05-10T07:25:49;13.80;99.90
18160;DHT22;9205;52.032;4.314;2023-05-10T07:28:18;13.70;99.90
18160;DHT22;9205;52.032;4.314;2023-05-10T07:30:46;13.00;99.90
18160;DHT22;9205;52.032;4.314;2023-05-10T07:33:14;13.20;99.90
18160;DHT22;9205;52.032;4.314;2023-05-10T07:35:42;13.30;99.90
18160;DHT22;9205;52.032;4.314;2023-05-10T07:38:10;13.60;99.90
18160;DHT22;9205;52.032;4.314;2023-05-10T07:40:39;13.00;99.90
18160;DHT22;9205;52.032;4.314;2023-05-10T07:43:06;13.60;99.90
18160;DHT22;9205;52.032;4.314;2023-05-10T07:45:33;13.40;99.90
18160;DHT22;9205;52.032;4.314;2023-05-10T07:48:01;13.10;99.90
18160;DHT22;9205;52.032;4.314;2023-05-10T07:50:28;13.20;99.90
18160;DHT22;9205;52.032;4.314;2023-05-10T07:52:56;13.60;99.90
18160;DHT22;9205;52.032;4.314;2023-05-10T07:55:25;13.70;99.90
18160;DHT22;9205;52.032;4.314;2023-05-10T07:57:52;13.50;99.90
18160;DHT22;9205;52.032;4.314;2023-05-10T08:00:20;13.50;99.90
18160;DHT22;9205;52.032;4.314;2023-05-10T08:02:47;14.00;99.90
18160;DHT22;9205;52.032;4.314;2023-05-10T08:05:15;13.30;99.90
18160;DHT22;9205;52.032;4.314;2023-05-10T08:07:42;14.00;99.90
18160;DHT22;9205;52.032;4.314;2023-05-10T08:10:10;14.10;99.90
18160;DHT22;9205;52.032;4.314;2023-05-10T08:12:39;13.40;99.90
18160;DHT22;9205;52.032;4.314;2023-05-10T08:15:07;13.40;99.90
18160;DHT22;9205;52.032;4.314;2023-05-10T08:17:35;13.40;99.90
18160;DHT22;9205;52.032;4.314;2023-05-10T08:20:03;13.80;99.90
18160;DHT22;9205;52.032;4.314;2023-05-10T08:22:31;13.30;99.90
18160;DHT22;9205;52.032;4.314;2023-05-10T08:24:58;13.40;99.90
18160;DHT22;9205;52.032;4.314;2023-05-10T08:27:25;14.00;99.90
18160;DHT22;9205;52.032;4.314;2023-05-10T08:29:54;14.00;99.90
18160;DHT22;9205;52.032;4.314;2023-05-10T08:32:21;14.40;99.90
18160;DHT22;9205;52.032;4.314;2023-05-10T08:34:48;14.10;99.90
18160;DHT22;9205;52.032;4.314;2023-05-10T08:37:15;14.00;99.90
18160;DHT22;9205;52.032;4.314;2023-05-10T08:39:43;13.70;99.90
18160;DHT22;9205;52.032;4.314;2023-05-10T08:42:11;13.40;99.90
18160;DHT22;9205;52.032;4.314;2023-05-10T08:44:42;13.50;99.90
18160;DHT22;9205;52.032;4.314;2023-05-10T08:47:11;13.60;99.90
18160;DHT22;9205;52.032;4.314;2023-05-10T08:49:41;13.80;99.90
18160;DHT22;9205;52.032;4.314;2023-05-10T08:52:13;13.90;99.90
18160;DHT22;9205;52.032;4.314;2023-05-10T08:54:43;13.90;99.90
18160;DHT22;9205;52.032;4.314;2023-05-10T08:57:10;13.70;99.90
18160;DHT22;9205;52.032;4.314;2023-05-10T08:59:38;13.50;99.90
18160;DHT22;9205;52.032;4.314;2023-05-10T09:02:05;13.40;99.90
18160;DHT22;9205;52.032;4.314;2023-05-10T09:04:35;13.40;99.90
18160;DHT22;9205;52.032;4.314;2023-05-10T09:07:02;13.70;99.90
18160;DHT22;9205;52.032;4.314;2023-05-10T09:09:29;13.30;99.90
18160;DHT22;9205;52.032;4.314;2023-05-10T09:11:58;13.40;99.90
18160;DHT22;9205;52.032;4.314;2023-05-10T09:14:25;13.60;99.90
18160;DHT22;9205;52.032;4.314;2023-05-10T09:16:54;13.60;99.90
18160;DHT22;9205;52.032;4.314;2023-05-10T09:19:21;13.80;99.90
18160;DHT22;9205;52.032;4.314;2023-05-10T09:21:50;14.00;99.90
18160;DHT22;9205;52.032;4.314;2023-05-10T09:24:17;14.10;99.90
18160;DHT22;9205;52.032;4.314;2023-05-10T09:26:48;13.90;99.90
18160;DHT22;9205;52.032;4.314;2023-05-10T09:29:15;13.60;99.90
18160;DHT22;9205;52.032;4.314;2023-05-10T09:31:47;13.60;99.90
18160;DHT22;9205;52.032;4.314;2023-05-10T09:34:18;13.80;99.90
18160;DHT22;9205;52.032;4.314;2023-05-10T09:36:55;13.80;99.90
18160;DHT22;9205;52.032;4.314;2023-05-10T09:39:33;13.70;99.90
18160;DHT22;9205;52.032;4.314;2023-05-10T09:42:04;14.20;99.90
18160;DHT22;9205;52.032;4.314;2023-05-10T09:44:32;14.00;99.90
18160;DHT22;9205;52.032;4.314;2023-05-10T09:47:00;14.10;99.90
18160;DHT22;9205;52.032;4.314;2023-05-10T09:49:28;14.20;99.90
18160;DHT22;9205;52.032;4.314;2023-05-10T09:52:04;13.90;99.90
18160;DHT22;9205;52.032;4.314;2023-05-10T09:54:33;13.70;99.90
18160;DHT22;9205;52.032;4.314;2023-05-10T09:57:03;13.70;99.90
18160;DHT22;9205;52.032;4.314;2023-05-10T09:59:32;13.70;99.90
18160;DHT22;9205;52.032;4.314;2023-05-10T10:02:00;13.70;99.90
18160;DHT22;9205;52.032;4.314;2023-05-10T10:04:30;13.50;99.90
18160;DHT22;9205;52.032;4.314;2023-05-10T10:07:03;13.60;99.90
18160;DHT22;9205;52.032;4.314;2023-05-10T10:09:32;13.70;99.90
18160;DHT22;9205;52.032;4.314;2023-05-10T10:12:00;13.10;99.90
18160;DHT22;9205;52.032;4.314;2023-05-10T10:14:29;13.60;99.90
18160;DHT22;9205;52.032;4.314;2023-05-10T10:16:57;13.10;99.90
18160;DHT22;9205;52.032;4.314;2023-05-10T10:19:28;13.50;99.90
18160;DHT22;9205;52.032;4.314;2023-05-10T10:21:56;13.10;99.90
18160;DHT22;9205;52.032;4.314;2023-05-10T10:24:25;13.50;99.90
18160;DHT22;9205;52.032;4.314;2023-05-10T10:26:55;13.10;99.90
18160;DHT22;9205;52.032;4.314;2023-05-10T10:29:34;13.10;99.90
18160;DHT22;9205;52.032;4.314;2023-05-10T10:32:18;13.70;99.90
18160;DHT22;9205;52.032;4.314;2023-05-10T10:34:50;13.40;99.90
18160;DHT22;9205;52.032;4.314;2023-05-10T10:37:17;13.10;99.90
18160;DHT22;9205;52.032;4.314;2023-05-10T10:39:48;13.60;99.90
18160;DHT22;9205;52.032;4.314;2023-05-10T10:42:43;13.30;99.90
18160;DHT22;9205;52.032;4.314;2023-05-10T10:45:12;13.20;99.90
18160;DHT22;9205;52.032;4.314;2023-05-10T10:47:39;13.60;99.90
18160;DHT22;9205;52.032;4.314;2023-05-10T10:50:08;13.00;99.90
18160;DHT22;9205;52.032;4.314;2023-05-10T10:52:39;13.70;99.90
18160;DHT22;9205;52.032;4.314;2023-05-10T10:55:10;13.40;99.90
18160;DHT22;9205;52.032;4.314;2023-05-10T10:57:47;13.50;99.90
18160;DHT22;9205;52.032;4.314;2023-05-10T11:00:26;13.10;99.90
18160;DHT22;9205;52.032;4.314;2023-05-10T11:02:57;13.10;99.90
18160;DHT22;9205;52.032;4.314;2023-05-10T11:05:44;13.70;99.90
18160;DHT22;9205;52.032;4.314;2023-05-10T11:08:16;13.70;99.90
18160;DHT22;9205;52.032;4.314;2023-05-10T11:11:04;13.40;99.90
18160;DHT22;9205;52.032;4.314;2023-05-10T11:13:40;13.50;99.90
18160;DHT22;9205;52.032;4.314;2023-05-10T11:16:14;13.90;99.90
18160;DHT22;9205;52.032;4.314;2023-05-10T11:18:53;13.50;99.90
18160;DHT22;9205;52.032;4.314;2023-05-10T11:21:24;13.90;99.90
18160;DHT22;9205;52.032;4.314;2023-05-10T11:23:53;13.70;99.90
18160;DHT22;9205;52.032;4.314;2023-05-10T11:26:25;13.70;99.90
18160;DHT22;9205;52.032;4.314;2023-05-10T11:28:56;13.50;99.90
18160;DHT22;9205;52.032;4.314;2023-05-10T11:31:26;13.80;99.90
18160;DHT22;9205;52.032;4.314;2023-05-10T11:33:55;13.80;99.90
18160;DHT22;9205;52.032;4.314;2023-05-10T11:36:24;13.80;99.90
18160;DHT22;9205;52.032;4.314;2023-05-10T11:38:53;14.30;99.90
18160;DHT22;9205;52.032;4.314;2023-05-10T11:41:23;14.10;99.90
18160;DHT22;9205;52.032;4.314;2023-05-10T11:43:53;14.30;99.90
18160;DHT22;9205;52.032;4.314;2023-05-10T11:46:22;14.30;99.90
18160;DHT22;9205;52.032;4.314;2023-05-10T11:48:52;14.50;99.90
18160;DHT22;9205;52.032;4.314;2023-05-10T11:51:21;14.60;99.90
18160;DHT22;9205;52.032;4.314;2023-05-10T11:53:50;14.60;99.90
18160;DHT22;9205;52.032;4.314;2023-05-10T11:56:20;14.30;99.90
18160;DHT22;9205;52.032;4.314;2023-05-10T11:58:54;14.30;99.90
18160;DHT22;9205;52.032;4.314;2023-05-10T12:01:23;14.20;99.90
18160;DHT22;9205;52.032;4.314;2023-05-10T12:03:52;14.50;99.90
18160;DHT22;9205;52.032;4.314;2023-05-10T12:06:26;14.20;99.90
18160;DHT22;9205;52.032;4.314;2023-05-10T12:08:55;14.10;99.90
18160;DHT22;9205;52.032;4.314;2023-05-10T12:11:25;14.10;99.90
18160;DHT22;9205;52.032;4.314;2023-05-10T12:13:55;14.20;99.90
18160;DHT22;9205;52.032;4.314;2023-05-10T12:16:24;14.20;99.90
18160;DHT22;9205;52.032;4.314;2023-05-10T12:18:56;14.30;99.90
18160;DHT22;9205;52.032;4.314;2023-05-10T12:21:25;14.10;99.90
18160;DHT22;9205;52.032;4.314;2023-05-10T12:23:58;14.30;99.90
18160;DHT22;9205;52.032;4.314;2023-05-10T12:26:27;14.10;99.90
18160;DHT22;9205;52.032;4.314;2023-05-10T12:29:12;14.20;99.90
18160;DHT22;9205;52.032;4.314;2023-05-10T12:31:54;14.30;99.90
18160;DHT22;9205;52.032;4.314;2023-05-10T12:34:24;14.10;99.90
18160;DHT22;9205;52.032;4.314;2023-05-10T12:36:52;14.10;99.90
18160;DHT22;9205;52.032;4.314;2023-05-10T12:39:20;14.20;99.90
18160;DHT22;9205;52.032;4.314;2023-05-10T12:41:50;14.40;99.90
18160;DHT22;9205;52.032;4.314;2023-05-10T12:44:19;14.20;99.90
18160;DHT22;9205;52.032;4.314;2023-05-10T12:46:46;14.10;99.90
18160;DHT22;9205;52.032;4.314;2023-05-10T12:49:14;14.40;99.90
18160;DHT22;9205;52.032;4.314;2023-05-10T12:51:42;14.50;99.90
18160;DHT22;9205;52.032;4.314;2023-05-10T12:54:09;14.60;99.90
18160;DHT22;9205;52.032;4.314;2023-05-10T12:56:36;14.30;99.90
18160;DHT22;9205;52.032;4.314;2023-05-10T12:59:04;14.60;99.90
18160;DHT22;9205;52.032;4.314;2023-05-10T13:01:32;14.70;99.90
18160;DHT22;9205;52.032;4.314;2023-05-10T13:04:00;14.50;99.90
18160;DHT22;9205;52.032;4.314;2023-05-10T13:06:27;14.60;99.90
18160;DHT22;9205;52.032;4.314;2023-05-10T13:08:54;14.10;99.90
18160;DHT22;9205;52.032;4.314;2023-05-10T13:11:23;14.40;99.90
18160;DHT22;9205;52.032;4.314;2023-05-10T13:13:50;14.20;99.90
18160;DHT22;9205;52.032;4.314;2023-05-10T13:16:18;14.30;99.90
18160;DHT22;9205;52.032;4.314;2023-05-10T13:18:46;14.30;99.90
18160;DHT22;9205;52.032;4.314;2023-05-10T13:21:13;14.30;99.90
18160;DHT22;9205;52.032;4.314;2023-05-10T13:23:42;14.70;99.90
18160;DHT22;9205;52.032;4.314;2023-05-10T13:26:09;14.60;99.90
18160;DHT22;9205;52.032;4.314;2023-05-10T13:28:36;14.40;99.90
18160;DHT22;9205;52.032;4.314;2023-05-10T13:31:04;14.50;99.90
18160;DHT22;9205;52.032;4.314;2023-05-10T13:33:31;14.50;99.90
18160;DHT22;9205;52.032;4.314;2023-05-10T13:36:00;14.80;99.90
18160;DHT22;9205;52.032;4.314;2023-05-10T13:38:27;14.50;99.90
18160;DHT22;9205;52.032;4.314;2023-05-10T13:40:54;14.60;99.90
18160;DHT22;9205;52.032;4.314;2023-05-10T13:43:22;14.70;99.90
18160;DHT22;9205;52.032;4.314;2023-05-10T13:45:49;14.50;99.90
18160;DHT22;9205;52.032;4.314;2023-05-10T13:48:16;14.60;99.90
18160;DHT22;9205;52.032;4.314;2023-05-10T13:50:43;14.30;99.90
18160;DHT22;9205;52.032;4.314;2023-05-10T13:53:12;14.30;99.90
18160;DHT22;9205;52.032;4.314;2023-05-10T13:55:39;14.40;99.90
18160;DHT22;9205;52.032;4.314;2023-05-10T13:58:07;14.50;99.90
18160;DHT22;9205;52.032;4.314;2023-05-10T14:00:34;14.70;99.90
18160;DHT22;9205;52.032;4.314;2023-05-10T14:03:01;14.70;99.90
18160;DHT22;9205;52.032;4.314;2023-05-10T14:05:30;14.60;99.90
18160;DHT22;9205;52.032;4.314;2023-05-10T14:07:57;14.40;99.90
18160;DHT22;9205;52.032;4.314;2023-05-10T14:10:26;14.40;99.90
18160;DHT22;9205;52.032;4.314;2023-05-10T14:12:53;14.60;99.90
18160;DHT22;9205;52.032;4.314;2023-05-10T14:15:21;14.80;99.90
18160;DHT22;9205;52.032;4.314;2023-05-10T14:17:48;14.80;99.90
18160;DHT22;9205;52.032;4.314;2023-05-10T14:20:16;14.60;99.90
18160;DHT22;9205;52.032;4.314;2023-05-10T14:22:43;14.80;99.90
18160;DHT22;9205;52.032;4.314;2023-05-10T14:25:10;14.50;99.90
18160;DHT22;9205;52.032;4.314;2023-05-10T14:27:39;14.60;99.90
18160;DHT22;9205;52.032;4.314;2023-05-10T14:30:07;14.60;99.90
18160;DHT22;9205;52.032;4.314;2023-05-10T14:32:35;14.70;99.90
18160;DHT22;9205;52.032;4.314;2023-05-10T14:35:03;14.70;99.90
18160;DHT22;9205;52.032;4.314;2023-05-10T14:37:31;14.80;99.90
18160;DHT22;9205;52.032;4.314;2023-05-10T14:39:59;14.70;99.90
18160;DHT22;9205;52.032;4.314;2023-05-10T14:42:26;14.80;99.90
18160;DHT22;9205;52.032;4.314;2023-05-10T14:44:55;15.20;99.90
18160;DHT22;9205;52.032;4.314;2023-05-10T14:47:22;15.20;99.90
18160;DHT22;9205;52.032;4.314;2023-05-10T14:49:49;14.90;99.90
18160;DHT22;9205;52.032;4.314;2023-05-10T14:52:17;14.90;99.90
18160;DHT22;9205;52.032;4.314;2023-05-10T14:54:44;14.80;99.90
18160;DHT22;9205;52.032;4.314;2023-05-10T14:57:11;14.90;99.90
18160;DHT22;9205;52.032;4.314;2023-05-10T14:59:39;14.90;99.90
18160;DHT22;9205;52.032;4.314;2023-05-10T15:02:07;14.80;99.90
18160;DHT22;9205;52.032;4.314;2023-05-10T15:04:35;14.70;99.90
18160;DHT22;9205;52.032;4.314;2023-05-10T15:07:03;15.10;99.90
18160;DHT22;9205;52.032;4.314;2023-05-10T15:09:31;14.90;99.90
18160;DHT22;9205;52.032;4.314;2023-05-10T15:11:58;15.20;99.90
18160;DHT22;9205;52.032;4.314;2023-05-10T15:14:30;15.00;99.90
18160;DHT22;9205;52.032;4.314;2023-05-10T15:17:02;14.90;99.90
18160;DHT22;9205;52.032;4.314;2023-05-10T15:19:30;14.70;99.90
18160;DHT22;9205;52.032;4.314;2023-05-10T15:21:59;14.90;99.90
18160;DHT22;9205;52.032;4.314;2023-05-10T15:24:26;14.90;99.90
18160;DHT22;9205;52.032;4.314;2023-05-10T15:26:53;14.80;99.90
18160;DHT22;9205;52.032;4.314;2023-05-10T15:29:20;14.70;99.90
18160;DHT22;9205;52.032;4.314;2023-05-10T15:31:49;14.50;99.90
18160;DHT22;9205;52.032;4.314;2023-05-10T15:34:17;14.30;99.90
18160;DHT22;9205;52.032;4.314;2023-05-10T15:36:46;14.40;99.90
18160;DHT22;9205;52.032;4.314;2023-05-10T15:39:13;14.30;99.90
18160;DHT22;9205;52.032;4.314;2023-05-10T15:41:40;14.50;99.90
18160;DHT22;9205;52.032;4.314;2023-05-10T15:44:07;14.40;99.90
18160;DHT22;9205;52.032;4.314;2023-05-10T15:46:34;14.60;99.90
18160;DHT22;9205;52.032;4.314;2023-05-10T15:49:03;14.50;99.90
18160;DHT22;9205;52.032;4.314;2023-05-10T15:51:30;14.30;99.90
18160;DHT22;9205;52.032;4.314;2023-05-10T15:53:59;14.30;99.90
18160;DHT22;9205;52.032;4.314;2023-05-10T15:56:27;14.40;99.90
18160;DHT22;9205;52.032;4.314;2023-05-10T15:58:54;14.30;99.90
18160;DHT22;9205;52.032;4.314;2023-05-10T16:01:22;14.50;99.90